Southfield, MI (48075)

5:55 PM EDT on August 27, 2014 (GMT -0400)
PleasantWeather | Change Station
CLOSE
Current Station
Personal Weather Station
Location: Huntington Woods, MI
Elevation: 700 ft
Nearby Weather Stations

Elev 700 ft 42.48 °N, 83.18 °W | Updated 26 seconds ago

Clear
Clear
76.3 °F
Feels Like 78 °F
N
0.0
Wind Variable Wind from NNE
Gusts 2.0 mph

Today
High -- | Low -- °F
--% Chance of Precip.
Yesterday
High -- | Low -- °F
Precip. -- in
6:52 AM 8:15 PM
Waxing Crescent, 5% visible
Pressure 30.11 in
Visibility 10.0 miles
Clouds Clear
Heat Index 78 °F
Dew Point 61 °F
Humidity 59%
Rainfall 0.00 in
Snow Depth Not available.
UV 3 out of 12
Pollen 8.50 out of 12
Ozone Good
PM2.5 Good
Flu Activity Not available.
METAR KVLL 272135Z AUTO 32004KT 10SM CLR 25/12 A3011 RMK AO2 T02470121

More Conditions Fewer Conditions

Pressure 30.11 in
Visibility 10.0 miles
Clouds Clear
Heat Index 78 °F
Dew Point 61 °F
Humidity 59%
Rainfall 0.00 in
Snow Depth Not available.
UV 3 out of 12
Pollen 8.50 out of 12
Ozone Good
PM2.5 Good
Flu Activity Not available.
METAR KVLL 272135Z AUTO 32004KT 10SM CLR 25/12 A3011 RMK AO2 T02470121

More Conditions Fewer Conditions

10-Day Weather Forecast

Almanac

Astronomy

Aug. 27, 2014 Rise Set
Actual Time 6:52 AM EDT 8:15 PM EDT
Civil Twilight 6:23 AM EDT 8:44 PM EDT
Nautical Twilight 5:48 AM EDT 9:19 PM EDT
Astronomical Twilight 5:10 AM EDT 9:56 PM EDT
Moon 8:51 AM EDT 9:03 PM EDT
Length of Visible Light 14h 21m
Length of Day
13h 22m
Tomorrow will be 2m 43s shorter.
Waxing Crescent, 5% of the Moon is Illuminated
Today
Waxing Crescent
Sep 2
First Quarter
Sep 8
Full
Sep 15
Last Quarter
Sep 24
New

Today's Extremes

State Highs State Lows

Community

WunderPhotos

Upload Photos

1,747,791 photos uploaded!

Nearby

Air Quality

  Air Quality AQ Index Pollutant
Yesterday Good
PM10
Yesterday Good
OZONE
Current Good
PM2.5
Current Good
OZONE
Wednesday Good
OZONE
Wednesday Good
PM2.5
Thursday Good
OZONE
Thursday Good
PM2.5
Friday Good
OZONE
Friday Good
PM2.5

Snow Depth

Station Depth Elevation
No new snow has been reported.

Earthquake Activity

City Distance Mag. Time & Date
No recent earthquake activity has been reported nearby.
Minimum magnitude displayed is 2.5.

Coastal Water Temperatures

Place Temperature
Marblehead, OH 75.9 °F

Nearby Weather Stations